sensor_id;sensor_type;location;lat;lon;timestamp;P1;durP1;ratioP1;P2;durP2;ratioP2
69716;SDS011;67420;46.144;19.666;2024-01-06T00:07:34;10.10;;;6.72;;
69716;SDS011;67420;46.144;19.666;2024-01-06T00:17:36;9.85;;;7.05;;
69716;SDS011;67420;46.144;19.666;2024-01-06T00:27:39;9.05;;;6.68;;
69716;SDS011;67420;46.144;19.666;2024-01-06T00:37:41;9.27;;;6.72;;
69716;SDS011;67420;46.144;19.666;2024-01-06T00:47:43;10.02;;;6.60;;
69716;SDS011;67420;46.144;19.666;2024-01-06T00:57:45;9.95;;;6.72;;
69716;SDS011;67420;46.144;19.666;2024-01-06T01:07:47;8.73;;;6.65;;
69716;SDS011;67420;46.144;19.666;2024-01-06T01:17:50;9.80;;;6.30;;
69716;SDS011;67420;46.144;19.666;2024-01-06T01:27:52;9.38;;;6.50;;
69716;SDS011;67420;46.144;19.666;2024-01-06T01:37:54;8.50;;;5.93;;
69716;SDS011;67420;46.144;19.666;2024-01-06T01:47:56;9.40;;;6.20;;
69716;SDS011;67420;46.144;19.666;2024-01-06T01:57:59;10.18;;;6.85;;
69716;SDS011;67420;46.144;19.666;2024-01-06T02:08:01;8.60;;;5.60;;
69716;SDS011;67420;46.144;19.666;2024-01-06T02:18:03;8.02;;;5.65;;
69716;SDS011;67420;46.144;19.666;2024-01-06T02:28:05;8.07;;;5.88;;
69716;SDS011;67420;46.144;19.666;2024-01-06T02:38:07;8.20;;;5.70;;
69716;SDS011;67420;46.144;19.666;2024-01-06T02:48:10;8.07;;;5.72;;
69716;SDS011;67420;46.144;19.666;2024-01-06T02:58:13;8.13;;;5.90;;
69716;SDS011;67420;46.144;19.666;2024-01-06T03:08:15;8.30;;;5.80;;
69716;SDS011;67420;46.144;19.666;2024-01-06T03:18:18;8.82;;;5.45;;
69716;SDS011;67420;46.144;19.666;2024-01-06T03:28:20;8.30;;;5.88;;
69716;SDS011;67420;46.144;19.666;2024-01-06T03:38:22;7.03;;;5.22;;
69716;SDS011;67420;46.144;19.666;2024-01-06T03:48:24;7.28;;;5.60;;
69716;SDS011;67420;46.144;19.666;2024-01-06T03:58:27;6.88;;;5.13;;
69716;SDS011;67420;46.144;19.666;2024-01-06T04:08:29;6.38;;;4.43;;
69716;SDS011;67420;46.144;19.666;2024-01-06T04:18:31;6.65;;;5.10;;
69716;SDS011;67420;46.144;19.666;2024-01-06T04:28:34;5.97;;;4.60;;
69716;SDS011;67420;46.144;19.666;2024-01-06T04:38:35;6.75;;;5.38;;
69716;SDS011;67420;46.144;19.666;2024-01-06T04:48:39;6.90;;;4.80;;
69716;SDS011;67420;46.144;19.666;2024-01-06T04:58:42;6.22;;;4.65;;
69716;SDS011;67420;46.144;19.666;2024-01-06T05:08:44;7.60;;;4.60;;
69716;SDS011;67420;46.144;19.666;2024-01-06T05:18:47;6.82;;;4.55;;
69716;SDS011;67420;46.144;19.666;2024-01-06T05:28:49;6.78;;;4.43;;
69716;SDS011;67420;46.144;19.666;2024-01-06T05:38:51;5.70;;;4.22;;
69716;SDS011;67420;46.144;19.666;2024-01-06T05:48:54;5.50;;;3.88;;
69716;SDS011;67420;46.144;19.666;2024-01-06T05:58:57;5.80;;;3.92;;
69716;SDS011;67420;46.144;19.666;2024-01-06T06:09:00;4.95;;;3.95;;
69716;SDS011;67420;46.144;19.666;2024-01-06T06:19:02;5.40;;;3.97;;
69716;SDS011;67420;46.144;19.666;2024-01-06T06:29:05;5.10;;;3.70;;
69716;SDS011;67420;46.144;19.666;2024-01-06T06:39:07;4.65;;;3.70;;
69716;SDS011;67420;46.144;19.666;2024-01-06T06:49:10;4.65;;;3.47;;
69716;SDS011;67420;46.144;19.666;2024-01-06T06:59:12;5.88;;;3.88;;
69716;SDS011;67420;46.144;19.666;2024-01-06T07:09:15;6.03;;;3.80;;
69716;SDS011;67420;46.144;19.666;2024-01-06T07:19:19;4.10;;;3.25;;
69716;SDS011;67420;46.144;19.666;2024-01-06T07:29:22;5.43;;;3.63;;
69716;SDS011;67420;46.144;19.666;2024-01-06T07:39:24;5.60;;;3.80;;
69716;SDS011;67420;46.144;19.666;2024-01-06T07:49:26;5.85;;;3.75;;
69716;SDS011;67420;46.144;19.666;2024-01-06T07:59:29;5.75;;;3.65;;
69716;SDS011;67420;46.144;19.666;2024-01-06T08:09:31;4.72;;;3.83;;
69716;SDS011;67420;46.144;19.666;2024-01-06T08:19:33;5.28;;;4.22;;
69716;SDS011;67420;46.144;19.666;2024-01-06T08:29:37;6.68;;;4.82;;
69716;SDS011;67420;46.144;19.666;2024-01-06T08:39:40;7.25;;;4.80;;
69716;SDS011;67420;46.144;19.666;2024-01-06T08:49:43;6.70;;;4.97;;
69716;SDS011;67420;46.144;19.666;2024-01-06T08:59:45;8.02;;;5.55;;
69716;SDS011;67420;46.144;19.666;2024-01-06T09:09:47;7.38;;;5.60;;
69716;SDS011;67420;46.144;19.666;2024-01-06T09:19:49;7.93;;;5.28;;
69716;SDS011;67420;46.144;19.666;2024-01-06T09:29:51;8.27;;;5.93;;
69716;SDS011;67420;46.144;19.666;2024-01-06T09:39:53;9.45;;;6.20;;
69716;SDS011;67420;46.144;19.666;2024-01-06T09:49:56;8.50;;;6.30;;
69716;SDS011;67420;46.144;19.666;2024-01-06T10:00:02;8.18;;;5.78;;
69716;SDS011;67420;46.144;19.666;2024-01-06T10:10:06;10.07;;;5.22;;
69716;SDS011;67420;46.144;19.666;2024-01-06T10:20:09;9.23;;;5.95;;
69716;SDS011;67420;46.144;19.666;2024-01-06T10:30:12;11.30;;;6.15;;
69716;SDS011;67420;46.144;19.666;2024-01-06T10:40:20;8.73;;;5.15;;
69716;SDS011;67420;46.144;19.666;2024-01-06T10:50:22;9.73;;;4.70;;
69716;SDS011;67420;46.144;19.666;2024-01-06T11:00:25;9.88;;;5.40;;
69716;SDS011;67420;46.144;19.666;2024-01-06T11:10:27;8.10;;;5.15;;
69716;SDS011;67420;46.144;19.666;2024-01-06T11:20:31;9.13;;;5.80;;
69716;SDS011;67420;46.144;19.666;2024-01-06T11:30:33;8.73;;;5.80;;
69716;SDS011;67420;46.144;19.666;2024-01-06T11:40:38;8.02;;;5.78;;
69716;SDS011;67420;46.144;19.666;2024-01-06T11:50:40;7.80;;;5.57;;
69716;SDS011;67420;46.144;19.666;2024-01-06T12:00:43;8.32;;;5.60;;
69716;SDS011;67420;46.144;19.666;2024-01-06T12:10:49;8.77;;;6.22;;
69716;SDS011;67420;46.144;19.666;2024-01-06T12:20:52;11.38;;;6.57;;
69716;SDS011;67420;46.144;19.666;2024-01-06T12:30:55;8.30;;;5.60;;
69716;SDS011;67420;46.144;19.666;2024-01-06T12:40:57;10.82;;;6.50;;
69716;SDS011;67420;46.144;19.666;2024-01-06T12:50:59;10.23;;;7.35;;
69716;SDS011;67420;46.144;19.666;2024-01-06T13:01:01;12.45;;;7.43;;
69716;SDS011;67420;46.144;19.666;2024-01-06T13:11:04;11.63;;;7.53;;
69716;SDS011;67420;46.144;19.666;2024-01-06T13:21:07;11.00;;;7.93;;
69716;SDS011;67420;46.144;19.666;2024-01-06T13:31:10;13.75;;;9.75;;
69716;SDS011;67420;46.144;19.666;2024-01-06T13:41:12;16.23;;;10.30;;
69716;SDS011;67420;46.144;19.666;2024-01-06T13:51:15;14.15;;;9.65;;
69716;SDS011;67420;46.144;19.666;2024-01-06T14:01:18;16.77;;;10.60;;
69716;SDS011;67420;46.144;19.666;2024-01-06T14:11:20;15.38;;;10.60;;
69716;SDS011;67420;46.144;19.666;2024-01-06T14:21:22;17.73;;;11.00;;
69716;SDS011;67420;46.144;19.666;2024-01-06T14:31:25;18.92;;;12.30;;
69716;SDS011;67420;46.144;19.666;2024-01-06T14:41:28;18.42;;;11.80;;
69716;SDS011;67420;46.144;19.666;2024-01-06T14:51:31;18.25;;;12.00;;
69716;SDS011;67420;46.144;19.666;2024-01-06T15:01:34;16.80;;;11.77;;
69716;SDS011;67420;46.144;19.666;2024-01-06T15:11:36;15.93;;;11.25;;
69716;SDS011;67420;46.144;19.666;2024-01-06T15:21:38;15.68;;;11.32;;
69716;SDS011;67420;46.144;19.666;2024-01-06T15:31:41;17.77;;;11.55;;
69716;SDS011;67420;46.144;19.666;2024-01-06T15:41:43;14.98;;;11.02;;
69716;SDS011;67420;46.144;19.666;2024-01-06T15:51:45;16.70;;;11.23;;
69716;SDS011;67420;46.144;19.666;2024-01-06T16:01:48;17.92;;;12.75;;
69716;SDS011;67420;46.144;19.666;2024-01-06T16:11:51;17.98;;;12.43;;
69716;SDS011;67420;46.144;19.666;2024-01-06T16:21:53;17.55;;;12.60;;
69716;SDS011;67420;46.144;19.666;2024-01-06T16:32:15;19.45;;;13.63;;
69716;SDS011;67420;46.144;19.666;2024-01-06T16:42:17;20.77;;;14.20;;
69716;SDS011;67420;46.144;19.666;2024-01-06T16:52:19;21.67;;;13.93;;
69716;SDS011;67420;46.144;19.666;2024-01-06T17:02:21;23.10;;;13.68;;
69716;SDS011;67420;46.144;19.666;2024-01-06T17:12:24;18.58;;;12.57;;
69716;SDS011;67420;46.144;19.666;2024-01-06T17:22:27;19.45;;;12.15;;
69716;SDS011;67420;46.144;19.666;2024-01-06T17:32:29;17.67;;;11.93;;
69716;SDS011;67420;46.144;19.666;2024-01-06T17:42:31;16.70;;;11.50;;
69716;SDS011;67420;46.144;19.666;2024-01-06T17:52:35;18.38;;;12.70;;
69716;SDS011;67420;46.144;19.666;2024-01-06T18:02:37;17.83;;;12.07;;
69716;SDS011;67420;46.144;19.666;2024-01-06T18:12:40;17.80;;;11.88;;
69716;SDS011;67420;46.144;19.666;2024-01-06T18:22:43;15.77;;;11.63;;
69716;SDS011;67420;46.144;19.666;2024-01-06T18:32:45;15.50;;;11.07;;
69716;SDS011;67420;46.144;19.666;2024-01-06T18:42:47;17.70;;;11.73;;
69716;SDS011;67420;46.144;19.666;2024-01-06T18:52:50;16.83;;;11.60;;
69716;SDS011;67420;46.144;19.666;2024-01-06T19:02:53;16.08;;;11.35;;
69716;SDS011;67420;46.144;19.666;2024-01-06T19:12:55;15.93;;;11.25;;
69716;SDS011;67420;46.144;19.666;2024-01-06T19:22:57;17.00;;;11.75;;
69716;SDS011;67420;46.144;19.666;2024-01-06T19:33:09;19.15;;;12.55;;
69716;SDS011;67420;46.144;19.666;2024-01-06T19:43:12;17.98;;;12.13;;
69716;SDS011;67420;46.144;19.666;2024-01-06T19:53:17;18.02;;;12.38;;
69716;SDS011;67420;46.144;19.666;2024-01-06T20:03:20;17.90;;;11.73;;
69716;SDS011;67420;46.144;19.666;2024-01-06T20:13:22;17.73;;;11.25;;
69716;SDS011;67420;46.144;19.666;2024-01-06T20:23:24;17.48;;;11.10;;
69716;SDS011;67420;46.144;19.666;2024-01-06T20:33:27;16.95;;;10.88;;
69716;SDS011;67420;46.144;19.666;2024-01-06T20:43:35;16.13;;;10.05;;
69716;SDS011;67420;46.144;19.666;2024-01-06T20:53:39;13.82;;;9.13;;
69716;SDS011;67420;46.144;19.666;2024-01-06T21:03:41;13.95;;;8.85;;
69716;SDS011;67420;46.144;19.666;2024-01-06T21:13:43;13.80;;;8.57;;
69716;SDS011;67420;46.144;19.666;2024-01-06T21:23:46;13.80;;;8.05;;
69716;SDS011;67420;46.144;19.666;2024-01-06T21:33:49;12.77;;;8.00;;
69716;SDS011;67420;46.144;19.666;2024-01-06T21:43:52;9.70;;;6.95;;
69716;SDS011;67420;46.144;19.666;2024-01-06T21:53:54;10.50;;;6.80;;
69716;SDS011;67420;46.144;19.666;2024-01-06T22:03:57;10.73;;;6.68;;
69716;SDS011;67420;46.144;19.666;2024-01-06T22:14:01;9.80;;;5.95;;
69716;SDS011;67420;46.144;19.666;2024-01-06T22:24:03;9.52;;;6.10;;
69716;SDS011;67420;46.144;19.666;2024-01-06T22:34:06;8.57;;;5.47;;
69716;SDS011;67420;46.144;19.666;2024-01-06T22:44:08;7.70;;;5.45;;
69716;SDS011;67420;46.144;19.666;2024-01-06T22:54:11;6.40;;;4.63;;
69716;SDS011;67420;46.144;19.666;2024-01-06T23:04:13;5.72;;;4.43;;
69716;SDS011;67420;46.144;19.666;2024-01-06T23:14:17;6.55;;;4.43;;
69716;SDS011;67420;46.144;19.666;2024-01-06T23:24:20;5.60;;;4.07;;
69716;SDS011;67420;46.144;19.666;2024-01-06T23:34:22;6.90;;;4.53;;
69716;SDS011;67420;46.144;19.666;2024-01-06T23:44:40;5.78;;;4.35;;
69716;SDS011;67420;46.144;19.666;2024-01-06T23:54:43;5.53;;;4.32;;
